Time;durP1;ratioP1;P1;durP2;ratioP2;P2;SDS_P1;SDS_P2;PMS_P1;PMS_P2;Temp;Humidity;BMP_temperature;BMP_pressure;BME280_temperature;BME280_humidity;BME280_pressure;Samples;Min_cycle;Max_cycle;Signal;HPM_P1;HPM_P2
2022/12/03 00:02:07;;;;;;;25.20;13.98;;;1.80;99.90;;;-144.05;71.94;125687.94;5041045;28;20036;-85
2022/12/03 00:04:33;;;;;;;26.45;13.77;;;1.80;99.90;;;-144.05;71.87;125687.94;5040123;28;20091;-85
2022/12/03 00:06:59;;;;;;;24.10;13.25;;;1.80;99.90;;;-144.05;71.59;125687.94;5040972;28;20039;-85
2022/12/03 00:09:25;;;;;;;22.65;13.07;;;1.80;99.90;;;-144.05;72.06;125687.94;5040211;28;20039;-85
2022/12/03 00:11:50;;;;;;;23.50;12.65;;;1.80;99.90;;;-144.05;72.09;125687.94;5039503;28;20481;-85
2022/12/03 00:14:16;;;;;;;25.95;13.10;;;1.80;99.90;;;-144.05;72.12;125687.94;5054289;28;20092;-82
2022/12/03 00:16:42;;;;;;;23.13;14.10;;;1.80;99.90;;;-144.05;71.79;125687.94;5038215;28;20029;-83
2022/12/03 00:19:08;;;;;;;25.45;13.57;;;1.80;99.90;;;-144.05;71.62;125687.94;5038622;28;20025;-84
2022/12/03 00:21:34;;;;;;;24.85;13.65;;;1.80;99.90;;;-144.05;71.94;125687.94;5041238;28;20188;-85
2022/12/03 00:24:00;;;;;;;27.45;15.07;;;1.80;99.90;;;-144.05;71.36;125687.94;5039639;28;20477;-85
2022/12/03 00:26:26;;;;;;;23.38;13.55;;;1.80;99.90;;;-144.05;71.79;125687.94;5040915;28;20029;-85
2022/12/03 00:28:53;;;;;;;24.65;13.68;;;1.80;99.90;;;-144.05;71.83;125687.94;5039346;28;20396;-85
2022/12/03 00:31:22;;;;;;;22.40;12.40;;;1.80;99.90;;;-144.05;71.47;125687.94;5040088;28;20021;-85
2022/12/03 00:33:50;;;;;;;27.50;13.77;;;1.80;99.90;;;-144.05;72.03;125687.94;5038618;28;20393;-85
2022/12/03 00:36:17;;;;;;;25.33;14.10;;;1.80;99.90;;;-144.05;72.00;125687.94;5037957;28;20059;-86
2022/12/03 00:38:43;;;;;;;28.00;15.65;;;1.80;99.90;;;-144.05;71.74;125687.94;5040603;28;20045;-85
2022/12/03 00:41:09;;;;;;;25.50;13.77;;;1.80;99.90;;;-144.05;71.80;125687.94;5038489;28;20041;-85
2022/12/03 00:43:35;;;;;;;26.33;13.95;;;1.80;99.90;;;-144.05;71.27;125687.94;5039478;28;20048;-85
2022/12/03 00:46:01;;;;;;;26.85;12.82;;;1.80;99.90;;;-144.05;71.38;125687.94;5039913;28;20033;-84
2022/12/03 00:48:27;;;;;;;26.90;14.45;;;1.80;99.90;;;-144.05;71.56;125687.94;5039765;28;20036;-85
2022/12/03 00:50:53;;;;;;;26.70;14.45;;;1.80;99.90;;;-144.05;71.55;125687.94;5039896;28;20026;-85
2022/12/03 00:53:19;;;;;;;27.05;14.32;;;1.80;99.90;;;-144.05;71.54;125687.94;5038983;28;20033;-84
2022/12/03 00:55:45;;;;;;;24.20;14.80;;;1.80;99.90;;;-144.05;71.83;125687.94;5037532;28;20078;-86
2022/12/03 00:58:11;;;;;;;26.27;14.25;;;1.80;99.90;;;-144.05;71.52;125687.94;5039078;28;20069;-85
2022/12/03 01:00:37;;;;;;;25.05;14.18;;;1.80;99.90;;;-144.05;71.44;125687.94;5041063;28;20385;-85
2022/12/03 01:03:04;;;;;;;28.05;14.85;;;1.80;99.90;;;-144.05;71.12;125687.94;5041861;28;20045;-84
2022/12/03 01:05:30;;;;;;;27.27;13.90;;;1.90;99.90;;;-144.05;71.97;125687.94;5039238;28;20034;-84
2022/12/03 01:07:56;;;;;;;25.45;15.02;;;1.80;99.90;;;-144.05;71.40;125687.94;5039914;28;20105;-84
2022/12/03 01:10:22;;;;;;;26.13;14.38;;;1.80;99.90;;;-144.05;71.06;125687.94;5040864;28;20029;-84
2022/12/03 01:12:47;;;;;;;27.45;13.52;;;1.80;99.90;;;-144.05;71.18;125687.94;5044660;28;20448;-82
2022/12/03 01:15:13;;;;;;;24.40;14.15;;;1.80;99.90;;;-144.05;71.30;125687.94;5043268;28;20022;-85
2022/12/03 01:17:39;;;;;;;26.02;14.50;;;1.80;99.90;;;-144.05;72.02;125687.94;5043624;28;20087;-85
2022/12/03 01:20:09;;;;;;;26.05;14.38;;;1.90;99.90;;;-144.05;71.80;125687.94;5043993;28;20038;-84
2022/12/03 01:22:36;;;;;;;27.27;14.40;;;1.80;99.90;;;-144.05;71.84;125687.94;5045217;28;20039;-84
2022/12/03 01:25:03;;;;;;;27.92;15.05;;;1.80;99.90;;;-144.05;71.33;125687.94;5046565;28;20473;-83
2022/12/03 01:27:28;;;;;;;27.92;15.45;;;1.80;99.90;;;-144.05;71.89;125687.94;5048975;28;20025;-83
2022/12/03 01:29:54;;;;;;;31.38;15.68;;;1.80;99.90;;;-144.05;71.65;125687.94;5046373;28;20032;-82
2022/12/03 01:32:20;;;;;;;29.95;15.07;;;1.80;99.90;;;-144.05;71.11;125687.94;5048357;28;20033;-81
2022/12/03 01:34:51;;;;;;;29.75;15.68;;;1.80;99.90;;;-144.05;71.45;125687.94;5044532;28;20033;-86
2022/12/03 01:37:21;;;;;;;29.90;15.32;;;1.80;99.90;;;-144.05;71.73;125687.94;5042470;28;20033;-87
2022/12/03 01:39:47;;;;;;;31.25;15.70;;;1.80;99.90;;;-144.05;71.44;125687.94;5044251;28;20116;-83
2022/12/03 01:42:33;;;;;;;29.80;15.02;;;1.90;99.90;;;-144.05;71.62;125687.94;5059489;28;20021;-82
2022/12/03 01:45:01;;;;;;;31.35;15.43;;;1.80;99.90;;;-144.05;71.53;125687.94;5051441;28;20064;-85
2022/12/03 01:47:34;;;;;;;27.65;14.82;;;1.80;99.90;;;-144.05;71.14;125687.94;5044743;28;20053;-85
2022/12/03 01:50:28;;;;;;;31.38;15.18;;;1.80;99.90;;;-144.05;71.52;125687.94;5042823;28;20116;-86
2022/12/03 01:53:00;;;;;;;29.23;14.27;;;1.80;99.90;;;-144.05;71.96;125687.94;5044596;28;20485;-85
2022/12/03 01:55:27;;;;;;;28.95;15.00;;;1.80;99.90;;;-144.05;71.71;125687.94;5042239;28;20032;-85
2022/12/03 01:58:01;;;;;;;28.35;15.27;;;1.80;99.90;;;-144.05;71.33;125687.94;5042356;28;20025;-84
2022/12/03 02:00:29;;;;;;;35.95;17.05;;;1.80;99.90;;;-144.05;71.57;125687.94;5043119;28;20025;-86
2022/12/03 02:03:15;;;;;;;32.13;16.20;;;1.80;99.90;;;-144.05;72.08;125687.94;5042928;28;20034;-84
2022/12/03 02:05:42;;;;;;;31.70;17.15;;;1.80;99.90;;;-144.05;71.54;125687.94;5045187;28;20033;-83
2022/12/03 02:08:35;;;;;;;31.92;16.42;;;1.80;99.90;;;-144.05;71.12;125687.94;5043142;28;20455;-85
2022/12/03 02:11:17;;;;;;;32.00;16.02;;;1.80;99.90;;;-144.05;71.66;125687.94;5043523;28;20036;-84
2022/12/03 02:13:44;;;;;;;32.85;16.45;;;1.80;99.90;;;-144.05;71.49;125687.94;5042959;28;20029;-86
2022/12/03 02:16:10;;;;;;;31.50;16.00;;;1.80;99.90;;;-144.05;71.43;125687.94;5043017;28;20025;-83
2022/12/03 02:18:36;;;;;;;30.52;15.43;;;1.70;99.90;;;-144.05;71.50;125687.94;5040995;28;20072;-84
2022/12/03 02:21:52;;;;;;;31.42;15.50;;;1.80;99.90;;;-144.05;71.72;125687.94;5040833;28;20056;-84
2022/12/03 02:24:36;;;;;;;35.47;17.08;;;1.70;99.90;;;-144.05;71.73;125687.94;5039084;28;20049;-83
2022/12/03 02:27:02;;;;;;;31.27;15.80;;;1.70;99.90;;;-144.05;71.33;125687.94;5041509;28;20029;-85
2022/12/03 02:29:30;;;;;;;36.38;17.23;;;1.70;99.90;;;-144.05;71.38;125687.94;5040879;28;20477;-83
2022/12/03 02:31:56;;;;;;;36.40;16.67;;;1.70;99.90;;;-144.05;71.25;125687.94;5041594;28;20288;-84
2022/12/03 02:34:42;;;;;;;33.78;15.70;;;1.70;99.90;;;-144.05;71.04;125687.94;5040994;28;20028;-86
2022/12/03 02:37:28;;;;;;;33.15;16.20;;;1.80;99.90;;;-144.05;71.32;125687.94;5040766;28;20060;-86
2022/12/03 02:40:01;;;;;;;33.10;15.20;;;1.70;99.90;;;-144.05;71.03;125687.94;5039835;28;20606;-84
2022/12/03 02:42:34;;;;;;;34.15;16.65;;;1.70;99.90;;;-144.05;70.76;125687.94;5040414;28;20455;-86
2022/12/03 02:45:29;;;;;;;38.15;15.95;;;1.70;99.90;;;-144.05;71.25;125687.94;5041062;28;20045;-85
2022/12/03 02:48:13;;;;;;;35.92;16.42;;;1.70;99.90;;;-144.05;70.90;125687.94;5045278;28;20034;-84
2022/12/03 02:50:56;;;;;;;35.63;16.55;;;1.60;99.90;;;-144.05;70.81;125687.94;5047184;28;20021;-83
2022/12/03 02:53:34;;;;;;;41.53;15.90;;;1.70;99.90;;;-144.05;70.85;125687.94;5042764;28;20036;-87
2022/12/03 02:56:04;;;;;;;36.55;15.98;;;1.70;99.90;;;-144.05;70.56;125687.94;5059530;28;20033;-87
2022/12/03 02:58:32;;;;;;;34.63;15.32;;;1.70;99.90;;;-144.05;71.47;125687.94;5044505;28;20022;-85
2022/12/03 03:01:02;;;;;;;36.65;15.95;;;1.60;99.90;;;-144.05;70.91;125687.94;5048861;28;20033;-86
2022/12/03 03:03:31;;;;;;;34.58;16.17;;;1.60;99.90;;;-144.05;70.47;125687.94;5051421;28;20055;-86
2022/12/03 03:06:01;;;;;;;35.00;16.05;;;1.60;99.90;;;-144.05;71.47;125687.94;5049263;28;20029;-84
2022/12/03 03:08:29;;;;;;;38.83;16.52;;;1.60;99.90;;;-144.05;71.22;125687.94;5041931;28;20029;-85
2022/12/03 03:10:59;;;;;;;40.60;16.13;;;1.60;99.90;;;-144.05;72.04;125687.94;5043611;28;20068;-85
2022/12/03 03:13:26;;;;;;;37.10;15.90;;;1.60;99.90;;;-144.05;71.65;125687.94;5043938;28;20030;-84
2022/12/03 03:15:52;;;;;;;42.78;17.73;;;1.60;99.90;;;-144.05;71.75;125687.94;5044219;28;20035;-85
2022/12/03 03:18:18;;;;;;;39.92;16.48;;;1.60;99.90;;;-144.05;71.75;125687.94;5042704;28;20057;-84
2022/12/03 03:20:44;;;;;;;45.63;17.25;;;1.60;99.90;;;-144.05;72.01;125687.94;5041518;28;20112;-86
2022/12/03 03:23:10;;;;;;;45.40;18.20;;;1.60;99.90;;;-144.05;72.48;125687.94;5041840;28;20033;-86
2022/12/03 03:25:50;;;;;;;39.58;15.70;;;1.60;99.90;;;-144.05;71.92;125687.94;5040872;28;20056;-85
2022/12/03 03:28:17;;;;;;;47.97;16.83;;;1.50;99.90;;;-144.05;71.62;125687.94;5042149;28;20040;-84
2022/12/03 03:30:44;;;;;;;40.20;16.05;;;1.50;99.90;;;-144.05;71.61;125687.94;5041727;28;20026;-86
2022/12/03 03:33:14;;;;;;;40.03;16.08;;;1.60;99.90;;;-144.05;71.10;125687.94;5041010;28;20040;-86
2022/12/03 03:35:42;;;;;;;43.20;17.23;;;1.50;99.90;;;-144.05;71.50;125687.94;5044538;28;20042;-87
2022/12/03 03:38:10;;;;;;;41.72;17.52;;;1.50;99.90;;;-144.05;71.57;125687.94;5042090;28;20021;-85
2022/12/03 03:40:38;;;;;;;44.88;16.48;;;1.50;99.90;;;-144.05;71.57;125687.94;5043373;28;20025;-87
2022/12/03 03:43:06;;;;;;;40.60;16.75;;;1.50;99.90;;;-144.05;71.40;125687.94;5048182;28;20043;-81
2022/12/03 03:45:32;;;;;;;42.53;16.73;;;1.50;99.90;;;-144.05;71.60;125687.94;5053217;28;20229;-84
2022/12/03 03:48:00;;;;;;;37.42;15.88;;;1.50;99.90;;;-144.05;70.98;125687.94;5041380;28;20029;-83
2022/12/03 03:50:31;;;;;;;41.80;15.77;;;1.50;99.90;;;-144.05;71.13;125687.94;5041183;28;20029;-83
2022/12/03 03:53:01;;;;;;;41.50;16.23;;;1.50;99.90;;;-144.05;71.01;125687.94;5040840;28;20532;-84
2022/12/03 03:55:29;;;;;;;42.60;17.83;;;1.50;99.90;;;-144.05;71.29;125687.94;5042305;28;20457;-87
2022/12/03 03:57:55;;;;;;;44.25;16.83;;;1.50;99.90;;;-144.05;71.40;125687.94;5040996;28;20033;-84
2022/12/03 04:00:22;;;;;;;43.75;16.98;;;1.50;99.90;;;-144.05;71.28;125687.94;5036880;28;20047;-83
2022/12/03 04:02:47;;;;;;;42.40;17.50;;;1.50;99.90;;;-144.05;71.84;125687.94;5038050;28;20041;-85
2022/12/03 04:05:21;;;;;;;43.47;16.67;;;1.50;99.90;;;-144.05;71.70;125687.94;5038411;28;20034;-84
2022/12/03 04:07:47;;;;;;;37.53;15.07;;;1.50;99.90;;;-144.05;71.26;125687.94;5040008;28;20038;-83
2022/12/03 04:13:14;;;;;;;42.13;16.98;;;1.50;99.90;;;-144.05;71.29;125687.94;4996793;28;20050;-85
2022/12/03 04:15:40;;;;;;;44.95;15.98;;;1.40;99.90;;;-144.05;71.19;125687.94;5040330;28;20397;-85
2022/12/03 04:19:06;;;;;;;44.78;16.60;;;1.50;99.90;;;-144.05;71.00;125687.94;5039274;28;20516;-86
2022/12/03 04:23:45;;;;;;;45.63;19.17;;;1.50;99.90;;;-144.05;71.85;125687.94;5039425;28;20048;-82
2022/12/03 04:28:56;;;;;;;41.15;16.65;;;1.40;99.90;;;-144.05;71.83;125687.94;5040330;28;20122;-83
2022/12/03 04:37:02;;;;;;;42.63;16.15;;;1.50;99.90;;;-144.05;70.89;125687.94;5042169;28;20558;-85
2022/12/03 04:39:28;;;;;;;37.58;15.45;;;1.40;99.90;;;-144.05;71.15;125687.94;5040322;28;20033;-84
2022/12/03 04:41:54;;;;;;;48.78;17.92;;;1.40;99.90;;;-144.05;71.00;125687.94;5039198;28;20025;-83
2022/12/03 04:44:32;;;;;;;40.00;16.83;;;1.40;99.90;;;-144.05;70.75;125687.94;5036077;28;20102;-82
2022/12/03 04:47:11;;;;;;;42.85;16.92;;;1.40;99.90;;;-144.05;71.38;125687.94;5040123;28;20031;-84
2022/12/03 04:49:48;;;;;;;44.05;17.35;;;1.40;99.90;;;-144.05;71.01;125687.94;5040625;28;20038;-87
2022/12/03 04:52:18;;;;;;;42.83;16.77;;;1.40;99.90;;;-144.05;70.86;125687.94;5042313;28;20033;-85
2022/12/03 04:54:44;;;;;;;50.75;17.83;;;1.50;99.90;;;-144.05;71.21;125687.94;5041749;28;20034;-86
2022/12/03 04:57:11;;;;;;;40.85;16.00;;;1.40;99.90;;;-144.05;70.95;125687.94;5041574;28;20026;-84
2022/12/03 04:59:38;;;;;;;41.83;16.85;;;1.40;99.90;;;-144.05;70.99;125687.94;5045257;28;20052;-87
2022/12/03 05:02:06;;;;;;;43.08;16.88;;;1.40;99.90;;;-144.05;71.67;125687.94;5042663;28;20056;-83
2022/12/03 05:04:32;;;;;;;50.35;19.80;;;1.40;99.90;;;-144.05;71.46;125687.94;5038066;28;20065;-85
2022/12/03 05:06:58;;;;;;;46.13;17.50;;;1.40;99.90;;;-144.05;71.47;125687.94;5038872;28;20041;-85
2022/12/03 05:09:24;;;;;;;53.10;18.63;;;1.40;99.90;;;-144.05;71.51;125687.94;5041386;28;20068;-84
2022/12/03 05:11:50;;;;;;;49.53;17.65;;;1.40;99.90;;;-144.05;71.62;125687.94;5038479;28;20036;-82
2022/12/03 05:14:16;;;;;;;59.30;25.85;;;1.40;99.90;;;-144.05;71.40;125687.94;5041272;28;20504;-84
2022/12/03 05:16:42;;;;;;;46.10;18.65;;;1.40;99.90;;;-144.05;71.46;125687.94;5041014;28;20037;-83
2022/12/03 05:19:08;;;;;;;46.42;20.45;;;1.40;99.90;;;-144.05;71.15;125687.94;5040802;28;20033;-82
2022/12/03 05:21:34;;;;;;;46.92;16.80;;;1.40;99.90;;;-144.05;71.13;125687.94;5041866;28;20377;-84
2022/12/03 05:24:01;;;;;;;41.50;16.85;;;1.40;99.90;;;-144.05;71.00;125687.94;5040823;28;20039;-85
2022/12/03 05:26:27;;;;;;;43.55;17.88;;;1.40;99.90;;;-144.05;71.08;125687.94;5041794;28;20029;-85
2022/12/03 05:28:53;;;;;;;46.55;17.42;;;1.40;99.90;;;-144.05;70.83;125687.94;5041516;28;20033;-84
2022/12/03 05:31:19;;;;;;;43.55;16.92;;;1.30;99.90;;;-144.05;70.85;125687.94;5040953;28;20037;-83
2022/12/03 05:33:45;;;;;;;49.35;18.02;;;1.40;99.90;;;-144.05;71.13;125687.94;5041237;28;20089;-83
2022/12/03 05:36:11;;;;;;;43.50;17.27;;;1.30;99.90;;;-144.05;71.26;125687.94;5040414;28;20092;-86
2022/12/03 05:38:37;;;;;;;41.70;18.15;;;1.30;99.90;;;-144.05;71.15;125687.94;5040887;28;20085;-85
2022/12/03 05:42:52;;;;;;;45.63;18.00;;;1.30;99.90;;;-144.05;71.27;125687.94;5043050;28;20040;-87
2022/12/03 05:43:49;;;;;;;41.53;17.05;;;1.30;99.90;;;-144.05;71.17;125687.94;5042276;28;20032;-84
2022/12/03 05:46:15;;;;;;;60.38;27.88;;;1.40;99.90;;;-144.05;70.91;125687.94;5049811;28;20018;-83
2022/12/03 05:48:41;;;;;;;48.30;16.73;;;1.30;99.90;;;-144.05;71.52;125687.94;5047076;28;20049;-87
2022/12/03 05:51:07;;;;;;;40.53;18.30;;;1.30;99.90;;;-144.05;71.45;125687.94;5031825;28;20029;-84
2022/12/03 05:53:33;;;;;;;46.75;18.23;;;1.30;99.90;;;-144.05;71.35;125687.94;5032351;28;20034;-87
2022/12/03 05:55:59;;;;;;;53.72;18.77;;;1.30;99.90;;;-144.05;71.23;125687.94;5032623;28;20485;-86
2022/12/03 05:58:24;;;;;;;45.25;18.70;;;1.30;99.90;;;-144.05;71.72;125687.94;5035713;28;20040;-87
2022/12/03 06:00:50;;;;;;;43.20;16.92;;;1.30;99.90;;;-144.05;71.15;125687.94;5035297;28;20033;-87
2022/12/03 06:03:16;;;;;;;49.83;17.83;;;1.30;99.90;;;-144.05;70.99;125687.94;5034970;28;20048;-85
2022/12/03 06:05:42;;;;;;;43.72;16.92;;;1.30;99.90;;;-144.05;70.95;125687.94;5035714;28;20037;-84
2022/12/03 06:08:08;;;;;;;41.22;18.35;;;1.30;99.90;;;-144.05;70.96;125687.94;5037020;28;20444;-87
2022/12/03 06:10:33;;;;;;;42.50;16.92;;;1.30;99.90;;;-144.05;70.81;125687.94;5036711;28;20128;-87
2022/12/03 06:12:59;;;;;;;50.55;17.52;;;1.30;99.90;;;-144.05;71.10;125687.94;5035681;28;20033;-86
2022/12/03 06:15:25;;;;;;;48.78;17.33;;;1.30;99.90;;;-144.05;71.32;125687.94;5035165;28;20045;-84
2022/12/03 06:17:51;;;;;;;46.47;18.90;;;1.30;99.90;;;-144.05;71.33;125687.94;5034881;28;20061;-85
2022/12/03 06:20:19;;;;;;;44.38;17.20;;;1.30;99.90;;;-144.05;71.18;125687.94;5036364;28;20111;-85
2022/12/03 06:22:47;;;;;;;44.33;15.98;;;1.30;99.90;;;-144.05;70.46;125687.94;5035378;28;20037;-85
2022/12/03 06:25:14;;;;;;;45.83;17.15;;;1.30;99.90;;;-144.05;70.66;125687.94;5034702;28;20037;-85
2022/12/03 06:27:40;;;;;;;44.97;17.48;;;1.30;99.90;;;-144.05;70.54;125687.94;5036209;28;20440;-84
2022/12/03 06:30:10;;;;;;;41.20;17.08;;;1.30;99.90;;;-144.05;70.91;125687.94;5033867;28;20060;-83
2022/12/03 06:32:35;;;;;;;44.58;15.98;;;1.30;99.90;;;-144.05;70.63;125687.94;5034372;28;20095;-85
2022/12/03 06:35:02;;;;;;;45.30;17.77;;;1.30;99.90;;;-144.05;71.33;125687.94;5035854;28;20033;-84
2022/12/03 06:37:27;;;;;;;44.63;17.58;;;1.30;99.90;;;-144.05;71.25;125687.94;5035846;28;20060;-86
2022/12/03 06:39:53;;;;;;;49.53;18.10;;;1.30;99.90;;;-144.05;70.85;125687.94;5035793;28;20331;-82
2022/12/03 06:42:19;;;;;;;46.30;16.52;;;1.20;99.90;;;-144.05;71.37;125687.94;5034359;28;20065;-84
2022/12/03 06:44:45;;;;;;;44.72;18.20;;;1.20;99.90;;;-144.05;71.30;125687.94;5035911;28;20028;-83
2022/12/03 06:47:11;;;;;;;47.13;19.50;;;1.20;99.90;;;-144.05;71.65;125687.94;5035101;28;20033;-85
2022/12/03 06:49:37;;;;;;;53.60;19.30;;;1.20;99.90;;;-144.05;71.49;125687.94;5034776;28;20037;-86
2022/12/03 06:52:03;;;;;;;44.42;18.40;;;1.20;99.90;;;-144.05;71.33;125687.94;5035483;28;20026;-86
2022/12/03 06:54:28;;;;;;;40.00;16.88;;;1.20;99.90;;;-144.05;71.44;125687.94;5036156;28;20488;-87
2022/12/03 06:56:54;;;;;;;47.50;18.50;;;1.20;99.90;;;-144.05;71.33;125687.94;5036195;28;20029;-87
2022/12/03 06:59:20;;;;;;;46.80;19.15;;;1.20;99.90;;;-144.05;71.27;125687.94;5038712;28;20080;-86
2022/12/03 07:01:46;;;;;;;42.55;17.52;;;1.20;99.90;;;-144.05;71.25;125687.94;5038175;28;20018;-85
2022/12/03 07:04:12;;;;;;;53.13;20.77;;;1.20;99.90;;;-144.05;71.38;125687.94;5038259;28;20114;-86
2022/12/03 07:06:38;;;;;;;52.40;19.58;;;1.10;99.90;;;-144.05;71.61;125687.94;5037065;28;20036;-87
2022/12/03 07:09:04;;;;;;;46.42;17.88;;;1.10;99.90;;;-144.05;71.67;125687.94;5036903;28;20040;-87
2022/12/03 07:11:30;;;;;;;49.33;18.85;;;1.10;99.90;;;-144.05;71.34;125687.94;5037968;28;20033;-86
2022/12/03 07:14:01;;;;;;;40.00;17.52;;;1.10;99.90;;;-144.05;71.38;125687.94;5037593;28;20056;-84
2022/12/03 07:16:28;;;;;;;51.15;19.35;;;1.10;99.90;;;-144.05;72.03;125687.94;5038379;28;20219;-85
2022/12/03 07:18:54;;;;;;;52.08;19.27;;;1.10;99.90;;;-144.05;71.75;125687.94;5036950;28;20075;-87
2022/12/03 07:21:20;;;;;;;48.72;18.80;;;1.10;99.90;;;-144.05;71.42;125687.94;5036675;28;20503;-87
2022/12/03 07:23:46;;;;;;;47.67;18.45;;;1.10;99.90;;;-144.05;71.28;125687.94;5036791;28;20033;-86
2022/12/03 07:26:12;;;;;;;50.90;19.67;;;1.10;99.90;;;-144.05;71.65;125687.94;5038855;28;20040;-85
2022/12/03 07:28:38;;;;;;;48.03;18.38;;;1.10;99.90;;;-144.05;71.33;125687.94;5038174;28;20043;-86
2022/12/03 07:31:04;;;;;;;45.08;17.88;;;1.10;99.90;;;-144.05;72.39;125687.94;5037499;28;20328;-86
2022/12/03 07:33:30;;;;;;;52.13;18.27;;;1.00;99.90;;;-144.05;71.86;125687.94;5036849;28;20469;-84
2022/12/03 07:35:56;;;;;;;46.08;17.83;;;1.00;99.90;;;-144.05;72.38;125687.94;5037269;28;20029;-87
2022/12/03 07:38:22;;;;;;;42.05;17.58;;;1.00;99.90;;;-144.05;71.67;125687.94;5037814;28;20110;-87
2022/12/03 07:40:48;;;;;;;46.42;17.40;;;1.00;99.90;;;-144.05;71.28;125687.94;5036108;28;20033;-85
2022/12/03 07:43:13;;;;;;;48.25;17.85;;;1.10;99.90;;;-144.05;72.04;125687.94;5036411;28;20033;-85
2022/12/03 07:45:39;;;;;;;41.03;17.27;;;1.10;99.90;;;-144.05;71.53;125687.94;5038641;28;20473;-85
2022/12/03 07:48:05;;;;;;;44.20;16.20;;;1.10;99.90;;;-144.05;71.82;125687.94;5043609;28;20033;-81
2022/12/03 07:50:31;;;;;;;41.63;17.45;;;1.00;99.90;;;-144.05;71.40;125687.94;5054094;28;20041;-81
2022/12/03 07:52:57;;;;;;;44.72;17.20;;;1.10;99.90;;;-144.05;71.35;125687.94;5035971;28;20405;-87
2022/12/03 07:55:24;;;;;;;52.30;19.85;;;1.10;99.90;;;-144.05;71.27;125687.94;5034980;28;20365;-83
2022/12/03 07:57:50;;;;;;;45.92;18.42;;;1.10;99.90;;;-144.05;71.03;125687.94;5035683;28;20041;-84
2022/12/03 08:00:18;;;;;;;41.78;16.88;;;1.10;99.90;;;-144.05;70.84;125687.94;5035344;28;20517;-83
2022/12/03 08:02:44;;;;;;;41.63;18.23;;;1.10;99.90;;;-144.05;71.03;125687.94;5035391;28;20095;-83
2022/12/03 08:05:10;;;;;;;46.20;18.10;;;1.10;99.90;;;-144.05;71.47;125687.94;5034321;28;20049;-81
2022/12/03 08:07:36;;;;;;;47.35;18.33;;;1.10;99.90;;;-144.05;71.60;125687.94;5033745;28;20504;-85
2022/12/03 08:10:05;;;;;;;47.92;17.58;;;1.10;99.90;;;-144.05;71.89;125687.94;5034790;28;20037;-84
2022/12/03 08:12:40;;;;;;;53.95;19.00;;;1.10;99.90;;;-144.05;71.51;125687.94;5034204;28;20025;-87
2022/12/03 08:15:24;;;;;;;48.50;18.70;;;1.10;99.90;;;-144.05;71.14;125687.94;5034490;28;20111;-87
2022/12/03 08:17:59;;;;;;;54.28;20.17;;;1.10;99.90;;;-144.05;71.29;125687.94;5036305;28;20032;-84
2022/12/03 08:20:36;;;;;;;48.55;17.48;;;1.10;99.90;;;-144.05;70.93;125687.94;5035762;28;20060;-87
2022/12/03 08:23:18;;;;;;;47.20;19.13;;;1.10;99.90;;;-144.05;71.75;125687.94;5034177;28;20424;-86
2022/12/03 08:25:46;;;;;;;47.10;19.48;;;1.10;99.90;;;-144.05;71.57;125687.94;5035031;28;20469;-84
2022/12/03 08:28:25;;;;;;;51.72;19.63;;;1.10;99.90;;;-144.05;71.47;125687.94;5034424;28;20112;-83
2022/12/03 08:31:24;;;;;;;50.05;19.27;;;1.10;99.90;;;-144.05;71.95;125687.94;5036196;28;20478;-84
2022/12/03 08:33:57;;;;;;;46.85;17.38;;;1.10;99.90;;;-144.05;71.34;125687.94;5034428;28;20047;-83
2022/12/03 08:36:31;;;;;;;51.22;18.65;;;1.10;99.90;;;-144.05;71.09;125687.94;5035236;28;20033;-87
2022/12/03 08:39:32;;;;;;;49.03;19.35;;;1.10;99.90;;;-144.05;71.18;125687.94;5035788;28;20025;-85
2022/12/03 08:44:54;;;;;;;47.13;18.80;;;1.20;99.90;;;-144.05;70.41;125687.94;5046825;28;20056;-87
2022/12/03 08:47:23;;;;;;;52.15;18.98;;;1.30;99.90;;;-144.05;70.43;125687.94;5037803;28;20056;-84
2022/12/03 08:50:27;;;;;;;88.85;31.05;;;1.30;99.90;;;-144.05;69.82;125687.94;5033162;28;20434;-83
2022/12/03 08:53:14;;;;;;;46.38;20.08;;;1.30;99.90;;;-144.05;70.10;125687.94;5033644;28;20029;-82
2022/12/03 08:55:54;;;;;;;54.85;19.75;;;1.30;99.90;;;-144.05;69.98;125687.94;5034485;28;20037;-83
2022/12/03 08:58:42;;;;;;;55.30;20.75;;;1.30;99.90;;;-144.05;70.29;125687.94;5033738;28;20120;-81
2022/12/03 09:01:11;;;;;;;45.63;19.42;;;1.30;99.90;;;-144.05;69.65;125687.94;5034876;28;20021;-83
2022/12/03 09:03:56;;;;;;;48.92;20.23;;;1.40;99.90;;;-144.05;70.04;125687.94;5035140;28;20034;-84
2022/12/03 09:06:22;;;;;;;173.23;53.25;;;1.30;99.90;;;-144.05;70.29;125687.94;5037620;28;20087;-83
2022/12/03 09:08:48;;;;;;;45.90;19.33;;;1.30;99.90;;;-144.05;70.16;125687.94;5035541;28;20397;-83
2022/12/03 09:11:15;;;;;;;68.15;25.08;;;1.30;99.90;;;-144.05;69.86;125687.94;5035024;28;20029;-82
2022/12/03 09:13:40;;;;;;;45.60;18.27;;;1.30;99.90;;;-144.05;70.55;125687.94;5034480;28;20493;-85
2022/12/03 09:16:07;;;;;;;48.78;18.77;;;1.30;99.90;;;-144.05;70.24;125687.94;5036217;28;20052;-85
2022/12/03 09:18:33;;;;;;;51.15;19.98;;;1.40;99.90;;;-144.05;69.58;125687.94;5034295;28;20280;-85
2022/12/03 09:20:59;;;;;;;43.63;18.27;;;1.50;99.90;;;-144.05;69.18;125687.94;5035088;28;20043;-84
2022/12/03 09:23:25;;;;;;;45.13;19.35;;;1.50;99.90;;;-144.05;69.48;125687.94;5035695;28;20025;-86
2022/12/03 09:25:51;;;;;;;43.58;18.50;;;1.50;99.90;;;-144.05;68.99;125687.94;5035340;28;20053;-84
2022/12/03 09:28:17;;;;;;;40.90;18.15;;;1.50;99.90;;;-144.05;68.81;125687.94;5032847;28;20025;-85
2022/12/03 09:30:43;;;;;;;47.55;18.05;;;1.60;99.90;;;-144.05;68.73;125687.94;5035592;28;20030;-85
2022/12/03 09:33:09;;;;;;;43.85;18.08;;;1.60;99.90;;;-144.05;68.45;125687.94;5039337;28;20158;-86
2022/12/03 09:35:35;;;;;;;41.67;18.35;;;1.70;99.90;;;-144.05;68.44;125687.94;5040005;28;20131;-86
2022/12/03 09:38:01;;;;;;;44.17;18.88;;;1.60;99.90;;;-144.05;68.42;125687.94;5041441;28;20041;-88
2022/12/03 09:40:28;;;;;;;43.72;17.45;;;1.70;99.90;;;-144.05;67.88;125687.94;5040294;28;20025;-85
2022/12/03 09:42:57;;;;;;;43.30;17.75;;;1.70;99.90;;;-144.05;67.74;125687.94;5040948;28;20487;-85
2022/12/03 09:45:23;;;;;;;46.47;19.30;;;1.80;99.90;;;-144.05;67.68;125687.94;5041580;28;20025;-87
2022/12/03 09:47:50;;;;;;;46.05;18.50;;;1.80;99.90;;;-144.05;67.41;125687.94;5043271;28;20115;-84
2022/12/03 09:50:25;;;;;;;44.03;18.10;;;1.80;99.90;;;-144.05;67.25;125687.94;5043317;28;20030;-83
2022/12/03 09:52:55;;;;;;;43.03;18.60;;;1.90;99.90;;;-144.05;67.14;125687.94;5052496;28;20527;-83
2022/12/03 09:55:27;;;;;;;44.78;18.80;;;1.90;99.90;;;-144.05;67.46;125687.94;5042922;28;20037;-86
2022/12/03 09:57:55;;;;;;;41.53;18.05;;;1.80;99.90;;;-144.05;67.82;125687.94;5037986;28;20032;-85
2022/12/03 10:00:29;;;;;;;42.60;18.50;;;1.80;99.90;;;-144.05;67.47;125687.94;5038392;28;20033;-83
2022/12/03 10:03:03;;;;;;;38.00;16.88;;;1.80;99.90;;;-144.05;67.57;125687.94;5037820;28;20082;-81
2022/12/03 10:05:29;;;;;;;43.13;19.13;;;1.80;99.90;;;-144.05;68.00;125687.94;5038708;28;20030;-85
2022/12/03 10:08:12;;;;;;;46.08;17.58;;;1.80;99.90;;;-144.05;67.73;125687.94;5038020;28;20438;-85
2022/12/03 10:10:41;;;;;;;43.17;17.55;;;1.90;99.90;;;-144.05;67.35;125687.94;5037214;28;20037;-82
2022/12/03 10:13:20;;;;;;;39.03;16.98;;;1.90;99.90;;;-144.05;67.52;125687.94;5037279;28;20071;-83
2022/12/03 10:15:47;;;;;;;43.25;18.35;;;1.90;99.90;;;-144.05;67.71;125687.94;5037933;28;20029;-85
2022/12/03 10:18:25;;;;;;;49.83;18.92;;;1.90;99.90;;;-144.05;67.31;125687.94;5038349;28;20068;-82
2022/12/03 10:20:52;;;;;;;37.38;17.00;;;2.00;99.90;;;-144.05;67.15;125687.94;5038718;28;20527;-83